Time;durP1;ratioP1;P1;durP2;ratioP2;P2;SDS_P1;SDS_P2;PMS_P1;PMS_P2;Temp;Humidity;BMP_temperature;BMP_pressure;BME280_temperature;BME280_humidity;BME280_pressure;Samples;Min_cycle;Max_cycle;Signal;HPM_P1;HPM_P2
2023/04/12 00:00:14;;;;;;;3.47;2.08;;;8.20;99.70;;;;;;5086336;28;20202;-66
2023/04/12 00:02:43;;;;;;;2.90;1.75;;;8.20;99.80;;;;;;5085845;28;20254;-66
2023/04/12 00:05:10;;;;;;;2.38;1.92;;;8.30;99.90;;;;;;5086573;28;20204;-66
2023/04/12 00:07:38;;;;;;;2.00;1.55;;;8.30;99.80;;;;;;5086490;28;20702;-67
2023/04/12 00:10:08;;;;;;;5.78;1.70;;;8.30;99.80;;;;;;5086662;28;20198;-67
2023/04/12 00:12:35;;;;;;;4.13;1.85;;;8.30;99.90;;;;;;5087144;28;20265;-67
2023/04/12 00:15:01;;;;;;;1.58;1.40;;;8.30;99.90;;;;;;5087055;28;20227;-66
2023/04/12 00:17:28;;;;;;;2.88;1.98;;;8.20;99.90;;;;;;5087040;28;20223;-66
2023/04/12 00:19:56;;;;;;;3.13;1.90;;;8.20;99.90;;;;;;5086486;28;20229;-67
2023/04/12 00:22:22;;;;;;;1.75;1.45;;;8.20;99.90;;;;;;5087113;28;20203;-66
2023/04/12 00:24:49;;;;;;;4.25;1.83;;;8.10;99.90;;;;;;5086428;28;20195;-66
2023/04/12 00:27:18;;;;;;;2.80;1.55;;;8.10;99.90;;;;;;5086321;28;20793;-65
2023/04/12 00:29:45;;;;;;;3.20;1.98;;;8.00;99.90;;;;;;5084945;28;20207;-67
2023/04/12 00:32:11;;;;;;;2.70;1.60;;;7.90;99.90;;;;;;5086872;28;20216;-67
2023/04/12 00:34:38;;;;;;;2.80;2.00;;;7.80;99.90;;;;;;5086781;28;20200;-66
2023/04/12 00:37:05;;;;;;;2.20;1.58;;;7.80;99.90;;;;;;5086319;28;20723;-66
2023/04/12 00:39:32;;;;;;;3.45;2.00;;;7.70;99.90;;;;;;5086399;28;20204;-66
2023/04/12 00:42:03;;;;;;;2.45;1.70;;;7.70;99.90;;;;;;5086409;28;20612;-67
2023/04/12 00:44:31;;;;;;;1.70;1.58;;;7.50;99.90;;;;;;5086823;28;20207;-66
2023/04/12 00:46:59;;;;;;;2.78;1.52;;;7.50;99.90;;;;;;5086246;28;20633;-67
2023/04/12 00:49:29;;;;;;;2.78;1.40;;;7.40;99.90;;;;;;5086513;28;20196;-66
2023/04/12 00:51:58;;;;;;;4.32;1.70;;;7.40;99.90;;;;;;5085877;28;20698;-66
2023/04/12 00:54:25;;;;;;;2.22;1.70;;;7.40;99.90;;;;;;5086439;28;20192;-67
2023/04/12 00:56:52;;;;;;;2.85;1.60;;;7.30;99.90;;;;;;5085917;28;20730;-66
2023/04/12 00:59:18;;;;;;;2.85;1.75;;;7.30;99.90;;;;;;5086152;28;20196;-66
2023/04/12 01:01:46;;;;;;;2.58;1.48;;;7.30;99.90;;;;;;5085947;28;20218;-66
2023/04/12 01:04:13;;;;;;;5.55;2.30;;;7.30;99.90;;;;;;5072776;28;20207;-67
2023/04/12 01:06:54;;;;;;;6.07;2.00;;;7.30;99.90;;;;;;5072338;28;20826;-66
2023/04/12 01:09:30;;;;;;;2.58;1.77;;;7.30;99.90;;;;;;5072401;28;20197;-66
2023/04/12 01:12:08;;;;;;;2.45;1.70;;;7.30;99.90;;;;;;5072420;28;20220;-67
2023/04/12 01:14:46;;;;;;;1.50;1.30;;;7.20;99.90;;;;;;5072856;28;20200;-66
2023/04/12 01:17:20;;;;;;;2.67;1.80;;;7.20;99.90;;;;;;5072558;28;20228;-66
2023/04/12 01:19:56;;;;;;;7.13;2.00;;;7.20;99.90;;;;;;5071854;28;20632;-65
2023/04/12 01:22:37;;;;;;;2.50;1.50;;;7.20;99.90;;;;;;5072583;28;20227;-66
2023/04/12 01:25:22;;;;;;;2.08;1.35;;;7.10;99.90;;;;;;5072358;28;20353;-67
2023/04/12 01:27:54;;;;;;;4.55;1.58;;;7.10;99.90;;;;;;5072020;28;20220;-67
2023/04/12 01:30:22;;;;;;;2.20;1.52;;;7.00;99.90;;;;;;5072090;28;20224;-67
2023/04/12 01:32:51;;;;;;;1.42;1.30;;;7.00;99.90;;;;;;5071810;28;20695;-66
2023/04/12 01:35:18;;;;;;;2.42;1.90;;;7.00;99.90;;;;;;5072383;28;20200;-67
2023/04/12 01:37:46;;;;;;;1.80;1.70;;;6.90;99.90;;;;;;5071566;28;20328;-65
2023/04/12 01:40:13;;;;;;;2.42;1.73;;;6.90;99.90;;;;;;5071808;28;20570;-66
2023/04/12 01:42:40;;;;;;;4.15;2.25;;;7.00;99.90;;;;;;5071990;28;20196;-67
2023/04/12 01:45:09;;;;;;;3.70;2.38;;;7.00;99.90;;;;;;5072022;28;20560;-67
2023/04/12 01:47:36;;;;;;;2.50;1.70;;;7.00;99.90;;;;;;5071583;28;20216;-66
2023/04/12 01:50:11;;;;;;;2.97;1.75;;;7.10;99.90;;;;;;5071617;28;20224;-65
2023/04/12 01:52:44;;;;;;;3.65;1.40;;;7.10;99.90;;;;;;5071670;28;20637;-67
2023/04/12 01:55:13;;;;;;;1.73;1.50;;;7.20;99.90;;;;;;5071874;28;20192;-66
2023/04/12 01:57:43;;;;;;;5.10;1.80;;;7.20;99.90;;;;;;5071528;28;20227;-66
2023/04/12 02:00:13;;;;;;;3.88;1.83;;;7.30;99.90;;;;;;5071405;28;20193;-67
2023/04/12 02:02:40;;;;;;;1.73;1.60;;;7.30;99.90;;;;;;5071542;28;20196;-66
2023/04/12 02:05:09;;;;;;;3.05;2.30;;;7.20;99.90;;;;;;5071759;28;20895;-66
2023/04/12 02:07:36;;;;;;;1.63;1.42;;;7.10;99.90;;;;;;5071199;28;20227;-65
2023/04/12 02:10:03;;;;;;;3.88;2.00;;;7.00;99.90;;;;;;5071264;28;20204;-66
2023/04/12 02:12:29;;;;;;;2.03;1.50;;;6.90;99.90;;;;;;5071556;28;20224;-67
2023/04/12 02:14:57;;;;;;;4.15;2.28;;;6.90;99.90;;;;;;5070235;28;20208;-66
2023/04/12 02:17:25;;;;;;;4.07;1.90;;;6.90;99.90;;;;;;5071289;28;20216;-67
2023/04/12 02:19:51;;;;;;;3.55;2.58;;;6.80;99.90;;;;;;5070779;28;20200;-66
2023/04/12 02:22:18;;;;;;;5.10;1.95;;;6.80;99.90;;;;;;5071344;28;20556;-66
2023/04/12 02:24:45;;;;;;;2.15;1.70;;;6.70;99.90;;;;;;5071134;28;20200;-66
2023/04/12 02:27:11;;;;;;;1.70;1.48;;;6.70;99.90;;;;;;5070929;28;20223;-66
2023/04/12 02:29:38;;;;;;;4.43;2.13;;;6.70;99.90;;;;;;5070825;28;20196;-66
2023/04/12 02:32:05;;;;;;;5.40;2.30;;;6.70;99.90;;;;;;5070861;28;20216;-66
2023/04/12 02:34:37;;;;;;;6.18;2.08;;;6.70;99.90;;;;;;5071092;28;20196;-66
2023/04/12 02:37:04;;;;;;;1.45;1.35;;;6.60;99.90;;;;;;5070536;28;20221;-66
2023/04/12 02:39:31;;;;;;;2.60;2.08;;;6.60;99.90;;;;;;5070775;28;20207;-67
2023/04/12 02:41:58;;;;;;;2.45;2.05;;;6.50;99.90;;;;;;5070637;28;20239;-66
2023/04/12 02:44:24;;;;;;;2.17;1.55;;;6.50;99.90;;;;;;5071013;28;20208;-66
2023/04/12 02:46:51;;;;;;;3.30;2.17;;;6.50;99.90;;;;;;5070269;28;20251;-66
2023/04/12 02:49:18;;;;;;;2.22;2.05;;;6.50;99.90;;;;;;5070527;28;20203;-66
2023/04/12 02:51:46;;;;;;;2.35;1.80;;;6.50;99.90;;;;;;5070280;28;20575;-67
2023/04/12 02:54:12;;;;;;;2.75;1.80;;;6.50;99.90;;;;;;5070580;28;20207;-66
2023/04/12 02:56:39;;;;;;;3.42;1.83;;;6.50;99.90;;;;;;5070256;28;20719;-66
2023/04/12 02:59:06;;;;;;;2.55;2.05;;;6.50;99.90;;;;;;5070462;28;20208;-67
2023/04/12 03:01:33;;;;;;;1.88;1.60;;;6.50;99.90;;;;;;5070454;28;20205;-66
2023/04/12 03:04:00;;;;;;;3.05;2.05;;;6.60;99.90;;;;;;5070462;28;20200;-67
2023/04/12 03:06:28;;;;;;;2.15;1.73;;;6.60;99.90;;;;;;5070226;28;20220;-66
2023/04/12 03:08:57;;;;;;;2.70;2.05;;;6.60;99.90;;;;;;5070206;28;20204;-66
2023/04/12 03:11:23;;;;;;;2.53;1.85;;;6.70;99.90;;;;;;5070142;28;20732;-66
2023/04/12 03:13:51;;;;;;;7.82;1.95;;;6.70;99.90;;;;;;5070328;28;20204;-67
2023/04/12 03:16:22;;;;;;;2.22;2.00;;;6.70;99.90;;;;;;5062222;28;20589;-66
2023/04/12 03:18:50;;;;;;;3.28;2.00;;;6.80;99.90;;;;;;5070387;28;20701;-67
2023/04/12 03:21:16;;;;;;;2.15;1.73;;;6.80;99.90;;;;;;5069938;28;20197;-67
2023/04/12 03:23:43;;;;;;;1.88;1.60;;;6.90;99.90;;;;;;5070171;28;20200;-66
2023/04/12 03:26:11;;;;;;;4.22;2.60;;;6.90;99.90;;;;;;5069569;28;20225;-67
2023/04/12 03:28:38;;;;;;;2.65;1.90;;;6.90;99.90;;;;;;5069925;28;20203;-67
2023/04/12 03:31:05;;;;;;;2.20;1.65;;;6.90;99.90;;;;;;5068783;28;20204;-66
2023/04/12 03:33:31;;;;;;;3.30;2.40;;;6.90;99.90;;;;;;5068902;28;20243;-67
2023/04/12 03:35:58;;;;;;;2.53;1.95;;;6.90;99.90;;;;;;5068941;28;20225;-67
2023/04/12 03:38:25;;;;;;;3.95;2.47;;;6.90;99.90;;;;;;5066803;28;20204;-66
2023/04/12 03:40:51;;;;;;;4.80;2.20;;;6.80;99.90;;;;;;5068404;28;20211;-66
2023/04/12 03:43:21;;;;;;;1.50;1.40;;;6.80;99.90;;;;;;5066142;28;20193;-67
2023/04/12 03:45:47;;;;;;;3.28;1.90;;;6.70;99.90;;;;;;5066466;28;20197;-66
2023/04/12 03:48:15;;;;;;;3.65;2.03;;;6.70;99.90;;;;;;5068898;28;20206;-65
2023/04/12 03:50:43;;;;;;;5.03;2.22;;;6.70;99.90;;;;;;5068987;28;20357;-66
2023/04/12 03:53:10;;;;;;;2.35;1.60;;;6.80;99.90;;;;;;5069284;28;20621;-66
2023/04/12 03:55:37;;;;;;;2.03;1.60;;;6.80;99.90;;;;;;5068566;28;20212;-66
2023/04/12 03:58:04;;;;;;;2.15;1.90;;;6.80;99.90;;;;;;5068586;28;20193;-67
2023/04/12 04:00:32;;;;;;;3.53;2.50;;;6.80;99.90;;;;;;5068424;28;20196;-66
2023/04/12 04:03:02;;;;;;;2.00;1.90;;;6.80;99.90;;;;;;5065562;28;20200;-65
2023/04/12 04:05:29;;;;;;;10.27;2.03;;;6.70;99.90;;;;;;5068668;28;20200;-66
2023/04/12 04:07:59;;;;;;;1.85;1.52;;;6.70;99.90;;;;;;5068016;28;20212;-66
2023/04/12 04:10:26;;;;;;;3.20;2.20;;;6.70;99.90;;;;;;5068359;28;20231;-67
2023/04/12 04:12:53;;;;;;;2.03;1.50;;;6.60;99.90;;;;;;5065298;28;20227;-66
2023/04/12 04:15:20;;;;;;;3.60;2.05;;;6.70;99.90;;;;;;5068244;28;20200;-66
2023/04/12 04:17:48;;;;;;;2.42;2.13;;;6.70;99.90;;;;;;5065011;28;20231;-66
2023/04/12 04:20:16;;;;;;;2.70;1.98;;;6.70;99.90;;;;;;5067312;28;20211;-71
2023/04/12 04:22:43;;;;;;;1.83;1.60;;;6.70;99.90;;;;;;5065302;28;20200;-67
2023/04/12 04:25:13;;;;;;;3.45;2.30;;;6.70;99.90;;;;;;5067899;28;20450;-66
2023/04/12 04:27:39;;;;;;;2.72;1.67;;;6.80;99.90;;;;;;5068975;28;20235;-67
2023/04/12 04:30:07;;;;;;;3.65;2.22;;;6.70;99.90;;;;;;5069081;28;20200;-66
2023/04/12 04:32:34;;;;;;;2.13;1.75;;;6.80;99.90;;;;;;5068922;28;20220;-65
2023/04/12 04:35:02;;;;;;;2.33;1.85;;;6.80;99.90;;;;;;5068625;28;20200;-66
2023/04/12 04:37:29;;;;;;;2.33;1.60;;;6.80;99.90;;;;;;5069591;28;20252;-66
2023/04/12 04:39:56;;;;;;;2.50;1.90;;;6.80;99.90;;;;;;5072899;28;20618;-67
2023/04/12 04:42:23;;;;;;;2.42;1.85;;;6.80;99.90;;;;;;5071205;28;20196;-65
2023/04/12 04:44:50;;;;;;;3.67;2.10;;;6.70;99.90;;;;;;5073181;28;20200;-66
2023/04/12 04:47:17;;;;;;;5.22;2.10;;;6.70;99.90;;;;;;5072766;28;20228;-64
2023/04/12 04:49:46;;;;;;;2.13;1.75;;;6.70;99.90;;;;;;5072261;28;20579;-66
2023/04/12 04:52:15;;;;;;;1.60;1.50;;;6.70;99.90;;;;;;5072440;28;20210;-65
2023/04/12 04:54:41;;;;;;;2.33;1.50;;;6.70;99.90;;;;;;5072799;28;20204;-65
2023/04/12 04:57:10;;;;;;;3.05;1.88;;;6.70;99.90;;;;;;5073474;28;20227;-64
2023/04/12 04:59:37;;;;;;;2.05;1.65;;;6.70;99.90;;;;;;5072838;28;20382;-64
2023/04/12 05:02:04;;;;;;;1.58;1.42;;;6.80;99.90;;;;;;5072862;28;20232;-64
2023/04/12 05:04:31;;;;;;;2.17;1.65;;;6.80;99.90;;;;;;5072925;28;20591;-65
2023/04/12 05:06:57;;;;;;;5.90;1.67;;;6.80;99.90;;;;;;5072438;28;20278;-64
2023/04/12 05:09:25;;;;;;;1.60;1.50;;;6.80;99.90;;;;;;5072639;28;20221;-64
2023/04/12 05:11:52;;;;;;;3.25;1.88;;;6.90;99.90;;;;;;5072970;28;20613;-65
2023/04/12 05:14:19;;;;;;;4.25;1.80;;;6.80;99.90;;;;;;5072457;28;20232;-66
2023/04/12 05:16:45;;;;;;;1.98;1.55;;;6.80;99.90;;;;;;5072337;28;20223;-65
2023/04/12 05:19:12;;;;;;;2.10;1.60;;;6.90;99.90;;;;;;5072365;28;20200;-65
2023/04/12 05:21:39;;;;;;;3.30;1.90;;;6.80;99.90;;;;;;5072381;28;20201;-65
2023/04/12 05:24:06;;;;;;;4.68;2.13;;;6.90;99.90;;;;;;5072560;28;20197;-65
2023/04/12 05:26:34;;;;;;;1.55;1.45;;;6.90;99.90;;;;;;5072961;28;20213;-64
2023/04/12 05:29:01;;;;;;;2.58;1.90;;;6.90;99.90;;;;;;5072630;28;20211;-64
2023/04/12 05:31:27;;;;;;;2.22;1.95;;;6.90;99.90;;;;;;5072394;28;20204;-65
2023/04/12 05:33:54;;;;;;;2.10;1.90;;;6.80;99.90;;;;;;5072270;28;20726;-66
2023/04/12 05:36:21;;;;;;;2.65;2.10;;;6.70;99.90;;;;;;5071861;28;20907;-66
2023/04/12 05:38:48;;;;;;;3.38;1.83;;;6.70;99.90;;;;;;5072083;28;20196;-65
2023/04/12 05:41:16;;;;;;;3.83;2.28;;;6.80;99.90;;;;;;5071853;28;20582;-66
2023/04/12 05:43:44;;;;;;;1.73;1.63;;;6.80;99.90;;;;;;5071956;28;20201;-66
2023/04/12 05:46:11;;;;;;;2.10;1.90;;;6.90;99.90;;;;;;5071896;28;20223;-65
2023/04/12 05:48:38;;;;;;;2.30;2.10;;;6.90;99.90;;;;;;5071697;28;20196;-64
2023/04/12 05:51:05;;;;;;;1.70;1.60;;;6.90;99.90;;;;;;5138190;22;20236;-68
2023/04/12 05:53:32;;;;;;;2.75;2.00;;;6.90;99.90;;;;;;5045022;28;20221;-68
2023/04/12 05:55:59;;;;;;;2.63;2.03;;;6.90;99.90;;;;;;5052121;28;20235;-68
2023/04/12 05:58:25;;;;;;;2.85;2.40;;;7.00;99.90;;;;;;5044133;28;20572;-68
2023/04/12 06:00:54;;;;;;;2.20;2.00;;;6.90;99.90;;;;;;5051609;28;20251;-68
2023/04/12 06:03:23;;;;;;;1.67;1.35;;;7.00;99.90;;;;;;5051764;28;20205;-69
2023/04/12 06:05:51;;;;;;;2.45;1.80;;;7.00;99.90;;;;;;5051485;28;20227;-68
2023/04/12 06:08:18;;;;;;;4.28;2.15;;;7.00;99.90;;;;;;5051400;28;20251;-69
2023/04/12 06:10:45;;;;;;;3.13;2.15;;;7.10;99.90;;;;;;5051280;28;20200;-68
2023/04/12 06:13:13;;;;;;;2.42;2.00;;;7.10;99.90;;;;;;5050439;28;20295;-68
2023/04/12 06:15:39;;;;;;;1.73;1.55;;;7.10;99.90;;;;;;5050864;28;20212;-68
2023/04/12 06:18:08;;;;;;;2.13;1.83;;;7.20;99.90;;;;;;5051032;28;20208;-68
2023/04/12 06:20:38;;;;;;;3.17;2.25;;;7.20;99.90;;;;;;5048381;28;20201;-68
2023/04/12 06:23:05;;;;;;;2.00;1.80;;;7.20;99.90;;;;;;5048119;28;20204;-69
2023/04/12 06:25:32;;;;;;;1.67;1.58;;;7.20;99.90;;;;;;5049575;28;20199;-69
2023/04/12 06:27:59;;;;;;;2.60;1.85;;;7.20;99.90;;;;;;5050466;28;20240;-69
2023/04/12 06:30:26;;;;;;;2.40;2.15;;;7.30;99.90;;;;;;5049808;28;20201;-68
2023/04/12 06:32:52;;;;;;;2.25;2.05;;;7.30;99.90;;;;;;5050914;28;20236;-69
2023/04/12 06:35:21;;;;;;;3.75;2.10;;;7.30;99.90;;;;;;5051564;28;20201;-70
2023/04/12 06:37:48;;;;;;;3.55;2.10;;;7.30;99.90;;;;;;5051373;28;20740;-70
2023/04/12 06:40:14;;;;;;;1.50;1.40;;;7.40;99.90;;;;;;5051367;28;20205;-70
2023/04/12 06:42:41;;;;;;;1.95;1.85;;;7.40;99.90;;;;;;5051661;28;20201;-70
2023/04/12 06:45:08;;;;;;;1.98;1.85;;;7.40;99.90;;;;;;5051110;28;20216;-71
2023/04/12 06:47:35;;;;;;;1.60;1.50;;;7.40;99.90;;;;;;5051517;28;20228;-69
2023/04/12 06:50:02;;;;;;;1.88;1.70;;;7.50;99.90;;;;;;5050708;28;20213;-70
2023/04/12 06:52:30;;;;;;;2.50;2.30;;;7.50;99.90;;;;;;5042821;28;20209;-70
2023/04/12 06:54:57;;;;;;;2.85;2.08;;;7.60;99.90;;;;;;5050946;28;20217;-69
2023/04/12 06:57:24;;;;;;;6.22;2.13;;;7.50;99.90;;;;;;5050889;28;20287;-70
2023/04/12 06:59:51;;;;;;;5.28;2.60;;;7.50;99.90;;;;;;5050136;28;20616;-70
2023/04/12 07:02:17;;;;;;;2.38;2.15;;;7.50;99.90;;;;;;5050302;28;20197;-70
2023/04/12 07:04:44;;;;;;;1.77;1.60;;;7.60;99.90;;;;;;5051008;28;20200;-70
2023/04/12 07:07:11;;;;;;;1.38;1.27;;;7.70;99.90;;;;;;5050422;28;20235;-69
2023/04/12 07:09:39;;;;;;;2.10;1.90;;;7.70;99.90;;;;;;5050545;28;20225;-69
2023/04/12 07:12:06;;;;;;;2.47;1.80;;;7.60;99.90;;;;;;5050150;28;20634;-68
2023/04/12 07:14:33;;;;;;;3.03;2.20;;;7.60;99.90;;;;;;5050214;28;20873;-68
2023/04/12 07:16:59;;;;;;;2.35;1.80;;;7.60;99.90;;;;;;5049823;28;20244;-68
2023/04/12 07:19:28;;;;;;;2.20;2.00;;;7.70;99.90;;;;;;5049770;28;20209;-68
2023/04/12 07:21:55;;;;;;;2.30;2.10;;;7.70;99.90;;;;;;5051242;28;20577;-70
2023/04/12 07:24:21;;;;;;;2.75;2.00;;;7.70;99.90;;;;;;5050356;28;20208;-70
2023/04/12 07:26:49;;;;;;;1.88;1.65;;;7.80;99.90;;;;;;5050271;28;20229;-70
2023/04/12 07:29:16;;;;;;;1.90;1.70;;;7.80;99.90;;;;;;5050271;28;20209;-70
2023/04/12 07:31:44;;;;;;;1.98;1.83;;;7.80;99.90;;;;;;5049839;28;20197;-70
2023/04/12 07:34:11;;;;;;;2.58;2.17;;;7.90;99.90;;;;;;5046545;28;20226;-70
2023/04/12 07:36:38;;;;;;;3.15;1.70;;;8.00;99.90;;;;;;5048120;28;20229;-70
2023/04/12 07:39:05;;;;;;;3.00;1.80;;;8.20;99.90;;;;;;5049675;28;20205;-72
2023/04/12 07:41:32;;;;;;;2.10;1.85;;;8.20;99.90;;;;;;5042024;28;20201;-71
2023/04/12 07:44:00;;;;;;;2.30;1.92;;;8.20;99.90;;;;;;5050023;28;20292;-70
2023/04/12 07:46:27;;;;;;;2.00;1.80;;;8.30;99.90;;;;;;5050107;28;21075;-72
2023/04/12 07:48:53;;;;;;;2.42;1.90;;;8.30;99.90;;;;;;5050095;28;20205;-68
2023/04/12 07:51:20;;;;;;;3.28;1.85;;;8.40;99.90;;;;;;5050002;28;20296;-70
2023/04/12 07:53:47;;;;;;;1.70;1.60;;;8.40;99.90;;;;;;5050107;28;20221;-70
2023/04/12 07:56:15;;;;;;;1.90;1.70;;;8.40;99.90;;;;;;5049445;28;20274;-69
2023/04/12 07:58:41;;;;;;;2.13;1.92;;;8.40;99.90;;;;;;5050059;28;20608;-71
2023/04/12 08:01:12;;;;;;;2.45;2.22;;;8.40;99.90;;;;;;5049369;28;20577;-71
2023/04/12 08:03:39;;;;;;;1.92;1.73;;;8.50;99.90;;;;;;5049974;28;20209;-70
2023/04/12 08:06:06;;;;;;;3.03;1.65;;;8.70;99.90;;;;;;5049329;28;20255;-71
2023/04/12 08:08:33;;;;;;;2.25;1.75;;;8.70;99.90;;;;;;5041602;28;20219;-71
2023/04/12 08:11:01;;;;;;;2.60;2.35;;;8.80;99.90;;;;;;5049503;28;20632;-70
2023/04/12 08:13:28;;;;;;;3.90;1.70;;;8.80;99.90;;;;;;5051556;28;20308;-70
2023/04/12 08:15:55;;;;;;;1.92;1.42;;;8.80;99.90;;;;;;5053649;28;20201;-69
2023/04/12 08:18:23;;;;;;;1.95;1.55;;;8.90;99.90;;;;;;5052896;28;20205;-69
2023/04/12 08:20:49;;;;;;;2.05;1.85;;;8.90;99.90;;;;;;5053030;28;20223;-71
2023/04/12 08:23:19;;;;;;;2.03;1.75;;;8.90;99.90;;;;;;5053507;28;20200;-71
2023/04/12 08:25:46;;;;;;;2.40;2.00;;;8.90;99.90;;;;;;5052969;28;20205;-70
2023/04/12 08:28:13;;;;;;;2.65;2.10;;;9.00;99.90;;;;;;5053075;28;20207;-70
2023/04/12 08:30:39;;;;;;;1.70;1.60;;;9.10;99.90;;;;;;5052470;28;20212;-70
2023/04/12 08:33:06;;;;;;;1.80;1.50;;;9.20;99.90;;;;;;5052490;28;20687;-70
2023/04/12 08:35:34;;;;;;;2.20;2.00;;;9.20;99.90;;;;;;5053917;28;20201;-70
2023/04/12 08:38:06;;;;;;;2.03;1.83;;;9.20;99.90;;;;;;5053439;28;20232;-69
2023/04/12 08:40:33;;;;;;;1.83;1.60;;;9.10;99.90;;;;;;5053212;28;20205;-68
2023/04/12 08:43:01;;;;;;;2.30;2.10;;;9.10;99.90;;;;;;5052853;28;20224;-70
2023/04/12 08:45:32;;;;;;;2.25;2.05;;;9.30;99.90;;;;;;5053057;28;20568;-69
2023/04/12 08:48:00;;;;;;;2.47;2.25;;;9.40;99.90;;;;;;5052140;28;20315;-69
2023/04/12 08:50:27;;;;;;;1.70;1.60;;;9.60;99.90;;;;;;5052698;28;20228;-69
2023/04/12 08:52:56;;;;;;;2.20;1.60;;;9.70;99.90;;;;;;5052503;28;20301;-69
2023/04/12 08:55:22;;;;;;;1.23;1.13;;;9.70;99.90;;;;;;5052131;28;20216;-69
2023/04/12 08:57:51;;;;;;;1.95;1.75;;;9.80;99.90;;;;;;5052303;28;20221;-70
2023/04/12 09:00:20;;;;;;;1.88;1.77;;;9.60;99.90;;;;;;5052611;28;20209;-69
2023/04/12 09:02:47;;;;;;;1.45;1.35;;;9.60;99.90;;;;;;5052477;28;20224;-69
2023/04/12 09:05:14;;;;;;;1.80;1.70;;;9.60;99.90;;;;;;5052623;28;20198;-69
2023/04/12 09:07:41;;;;;;;1.92;1.55;;;9.70;99.90;;;;;;5051074;28;20224;-69
2023/04/12 09:10:10;;;;;;;1.60;1.50;;;9.70;99.90;;;;;;5048389;28;21056;-69
2023/04/12 09:12:45;;;;;;;1.80;1.40;;;9.70;99.90;;;;;;5049880;28;20202;-69
2023/04/12 09:15:16;;;;;;;2.50;1.48;;;9.80;99.90;;;;;;5052801;28;20274;-70
2023/04/12 09:17:44;;;;;;;3.05;1.52;;;9.70;99.90;;;;;;5052371;28;20224;-69
2023/04/12 09:20:24;;;;;;;2.22;2.03;;;9.80;99.90;;;;;;5052336;28;20211;-69
2023/04/12 09:22:54;;;;;;;5.22;1.58;;;9.90;99.90;;;;;;5052853;28;20215;-69
2023/04/12 09:25:36;;;;;;;1.45;1.30;;;9.90;99.90;;;;;;5051252;28;20753;-69
2023/04/12 09:28:05;;;;;;;1.55;1.35;;;10.00;99.90;;;;;;5051817;28;20719;-69
2023/04/12 09:30:42;;;;;;;4.80;1.80;;;10.10;99.90;;;;;;5052149;28;20207;-69
2023/04/12 09:33:12;;;;;;;4.00;1.90;;;10.10;99.90;;;;;;5051204;28;20201;-69
2023/04/12 09:35:39;;;;;;;2.70;1.60;;;10.10;99.90;;;;;;5044142;28;20240;-69
2023/04/12 09:38:09;;;;;;;3.63;1.63;;;10.20;99.90;;;;;;5051618;28;20205;-71
2023/04/12 09:40:38;;;;;;;2.65;1.90;;;10.40;99.90;;;;;;5051415;28;20381;-70
2023/04/12 09:43:04;;;;;;;4.43;2.00;;;10.30;99.90;;;;;;5051684;28;20211;-70
2023/04/12 09:45:34;;;;;;;2.58;1.80;;;10.40;99.90;;;;;;5051138;28;20193;-70
2023/04/12 09:48:01;;;;;;;2.75;1.70;;;10.40;99.90;;;;;;5051179;28;20279;-70
2023/04/12 09:50:31;;;;;;;1.50;1.40;;;10.40;99.90;;;;;;5051564;28;20393;-70
2023/04/12 09:52:59;;;;;;;1.85;1.70;;;10.50;99.90;;;;;;5051588;28;20306;-70
2023/04/12 09:55:27;;;;;;;1.48;1.35;;;10.60;99.90;;;;;;5051171;28;20220;-69
2023/04/12 09:57:56;;;;;;;2.75;1.50;;;10.60;99.90;;;;;;5051204;28;20232;-68
2023/04/12 10:00:25;;;;;;;3.25;1.60;;;10.60;99.90;;;;;;5051243;28;20200;-69
2023/04/12 10:02:55;;;;;;;2.30;1.45;;;10.60;99.90;;;;;;5051236;28;20288;-69
2023/04/12 10:05:24;;;;;;;2.22;1.67;;;10.70;99.90;;;;;;5051323;28;20224;-68
2023/04/12 10:07:51;;;;;;;2.45;1.40;;;10.80;99.90;;;;;;5050937;28;20248;-69
2023/04/12 10:10:19;;;;;;;2.45;1.50;;;10.90;99.90;;;;;;5050386;28;20208;-69
2023/04/12 10:12:47;;;;;;;2.55;1.80;;;11.20;99.90;;;;;;5051187;28;20212;-69
2023/04/12 10:15:16;;;;;;;4.60;2.08;;;11.50;99.90;;;;;;5051062;28;20221;-69
2023/04/12 10:17:45;;;;;;;6.85;2.08;;;11.60;99.90;;;;;;5050578;28;20302;-69
2023/04/12 10:20:12;;;;;;;3.17;2.15;;;11.60;99.90;;;;;;5050733;28;20368;-69
2023/04/12 10:22:41;;;;;;;2.70;1.42;;;11.80;99.90;;;;;;5050729;28;20205;-69
2023/04/12 10:25:12;;;;;;;2.20;1.65;;;11.80;99.90;;;;;;5050717;28;20282;-69
2023/04/12 10:27:41;;;;;;;2.33;1.48;;;11.80;99.90;;;;;;5050782;28;20225;-68
2023/04/12 10:30:26;;;;;;;1.85;1.52;;;11.70;99.90;;;;;;5050864;28;20236;-68
2023/04/12 10:33:12;;;;;;;1.60;1.50;;;11.80;99.90;;;;;;5049659;28;20208;-68
2023/04/12 10:36:09;;;;;;;2.20;1.50;;;12.00;99.90;;;;;;5049860;28;20582;-68
2023/04/12 10:38:46;;;;;;;2.40;1.40;;;12.30;99.90;;;;;;5005373;28;20651;-68
2023/04/12 10:41:15;;;;;;;2.03;1.83;;;12.50;99.90;;;;;;5050782;28;20197;-68
2023/04/12 10:43:42;;;;;;;2.47;1.50;;;12.40;99.90;;;;;;5052117;28;20205;-68
2023/04/12 10:46:52;;;;;;;1.30;1.20;;;12.50;99.90;;;;;;5051076;28;20225;-67
2023/04/12 10:49:19;;;;;;;2.13;1.75;;;12.40;99.90;;;;;;5050186;28;20212;-68
2023/04/12 10:52:12;;;;;;;2.22;1.50;;;12.40;99.90;;;;;;5050755;28;20205;-70
2023/04/12 10:54:39;;;;;;;3.67;1.60;;;12.50;99.90;;;;;;5050821;28;20713;-69
2023/04/12 10:57:07;;;;;;;1.80;1.33;;;12.70;99.90;;;;;;5050101;28;20510;-68
2023/04/12 10:59:54;;;;;;;2.00;1.40;;;12.90;99.90;;;;;;5050507;28;20478;-68
2023/04/12 11:02:23;;;;;;;2.03;1.40;;;13.30;99.90;;;;;;5050495;28;20466;-68
2023/04/12 11:05:07;;;;;;;2.70;1.57;;;13.30;99.90;;;;;;5050160;28;20227;-68
2023/04/12 11:07:41;;;;;;;2.13;1.30;;;13.40;99.90;;;;;;5050585;28;20829;-69
2023/04/12 11:10:14;;;;;;;3.53;1.43;;;13.60;99.90;;;;;;5045138;28;20499;-69
2023/04/12 11:12:41;;;;;;;2.10;1.10;;;13.90;99.90;;;;;;5050856;28;20478;-69
2023/04/12 11:15:13;;;;;;;1.20;1.10;;;14.40;99.90;;;;;;5050540;28;20475;-69
2023/04/12 11:17:41;;;;;;;1.93;1.17;;;15.00;99.90;;;;;;5050306;28;20491;-69
2023/04/12 11:20:12;;;;;;;1.40;1.20;;;15.40;99.90;;;;;;5050219;28;20464;-69
2023/04/12 11:22:39;;;;;;;4.23;1.40;;;15.50;99.90;;;;;;5050132;28;20550;-69
2023/04/12 11:25:07;;;;;;;1.47;1.17;;;14.90;99.90;;;;;;5050187;28;20463;-70
2023/04/12 11:27:36;;;;;;;1.60;1.20;;;14.30;99.90;;;;;;5050543;28;20870;-70
2023/04/12 11:30:04;;;;;;;1.33;1.20;;;14.30;99.90;;;;;;5049903;28;20486;-70
2023/04/12 11:32:32;;;;;;;1.40;1.27;;;14.20;99.90;;;;;;5050404;28;20470;-68
2023/04/12 11:35:01;;;;;;;1.60;1.00;;;14.20;99.90;;;;;;5049802;28;20894;-69
2023/04/12 11:37:30;;;;;;;1.40;1.00;;;14.10;99.90;;;;;;5049970;28;20515;-70
2023/04/12 11:39:58;;;;;;;1.30;1.20;;;14.00;99.90;;;;;;5050268;28;20809;-69
2023/04/12 11:42:26;;;;;;;1.50;1.20;;;14.00;99.90;;;;;;5050591;28;20870;-69
2023/04/12 11:44:53;;;;;;;1.30;1.10;;;14.60;99.90;;;;;;5050217;28;20456;-69
2023/04/12 11:47:21;;;;;;;1.20;1.00;;;14.90;99.90;;;;;;5049584;28;20479;-69
2023/04/12 11:49:50;;;;;;;1.70;1.20;;;15.50;99.90;;;;;;5045151;28;20463;-70
2023/04/12 11:52:19;;;;;;;1.30;1.10;;;15.80;99.90;;;;;;5050050;28;20876;-70
2023/04/12 11:54:47;;;;;;;1.60;1.10;;;15.90;99.90;;;;;;5049775;28;20479;-70
2023/04/12 11:57:15;;;;;;;1.20;0.90;;;15.60;99.90;;;;;;5049845;28;20847;-70
2023/04/12 11:59:45;;;;;;;1.30;0.80;;;15.60;99.90;;;;;;5049307;28;20468;-69
2023/04/12 12:02:12;;;;;;;2.60;2.20;;;15.20;99.90;;;;;;5050480;28;20463;-68
2023/04/12 12:04:40;;;;;;;0.90;0.80;;;15.00;99.90;;;;;;5049899;28;20456;-67
2023/04/12 12:09:36;;;;;;;1.53;0.93;;;14.30;99.90;;;;;;5067645;28;20461;-69
2023/04/12 12:12:03;;;;;;;1.40;1.10;;;14.30;99.90;;;;;;5069305;28;20977;-69
2023/04/12 12:14:34;;;;;;;1.07;0.97;;;14.30;99.90;;;;;;5069309;28;20479;-70
2023/04/12 12:17:01;;;;;;;2.77;1.23;;;14.30;99.90;;;;;;5069111;28;20945;-67
2023/04/12 12:19:29;;;;;;;1.23;1.10;;;14.40;99.90;;;;;;5068989;28;20450;-70
2023/04/12 12:22:16;;;;;;;2.07;1.27;;;14.50;99.90;;;;;;5069202;28;20513;-70
2023/04/12 12:24:50;;;;;;;1.20;1.10;;;14.70;99.90;;;;;;5068853;28;20451;-70
2023/04/12 12:27:21;;;;;;;1.57;1.43;;;14.70;99.90;;;;;;5069362;28;20505;-69
2023/04/12 12:29:52;;;;;;;1.70;1.20;;;14.40;99.90;;;;;;5069021;28;20455;-68
2023/04/12 12:32:20;;;;;;;1.10;0.97;;;14.10;99.90;;;;;;5069458;28;20486;-69
2023/04/12 12:34:52;;;;;;;2.67;1.03;;;14.10;99.90;;;;;;5069200;28;20510;-69
2023/04/12 12:37:21;;;;;;;1.90;1.80;;;14.50;99.90;;;;;;5069512;28;20514;-70
2023/04/12 12:40:06;;;;;;;1.40;1.30;;;15.10;99.90;;;;;;5068918;28;20463;-70
2023/04/12 12:42:34;;;;;;;1.93;1.17;;;15.40;99.90;;;;;;5069406;28;20465;-68
2023/04/12 12:45:03;;;;;;;1.00;0.90;;;15.70;99.90;;;;;;5069385;28;20917;-69
2023/04/12 12:47:29;;;;;;;1.37;1.10;;;16.40;99.90;;;;;;5069010;28;20798;-69
2023/04/12 12:49:56;;;;;;;1.30;1.20;;;16.30;99.90;;;;;;5068879;28;20941;-69
2023/04/12 12:52:23;;;;;;;1.50;0.90;;;16.00;99.90;;;;;;5069205;28;20458;-70
2023/04/12 12:54:50;;;;;;;1.20;0.93;;;15.30;99.90;;;;;;5060621;28;20533;-70
2023/04/12 12:57:18;;;;;;;0.80;0.70;;;14.90;99.90;;;;;;5069267;28;21005;-67
2023/04/12 12:59:44;;;;;;;1.80;1.30;;;14.60;99.90;;;;;;5070657;28;20462;-69
2023/04/12 13:02:12;;;;;;;1.10;0.83;;;14.60;99.90;;;;;;5073225;28;20838;-69
2023/04/12 13:04:38;;;;;;;1.30;1.20;;;14.60;99.90;;;;;;5071093;28;20485;-69